createdAt,value
2022-08-14T00:00:13.977Z,56.34
2022-08-14T00:02:44.898Z,56.23
2022-08-14T00:05:25.412Z,56.62
2022-08-14T00:07:55.842Z,56.58
2022-08-14T00:10:51.306Z,56.37
2022-08-14T00:13:21.373Z,56.31
2022-08-14T00:15:54.315Z,56.42
2022-08-14T00:19:05.393Z,56.42
2022-08-14T00:21:17.025Z,56.39
2022-08-14T00:23:54.088Z,56.51
2022-08-14T00:26:23.723Z,56.76
2022-08-14T00:28:54.624Z,56.69
2022-08-14T00:31:35.331Z,56.90
2022-08-14T00:34:36.063Z,56.76
2022-08-14T00:37:05.709Z,56.79
2022-08-14T00:39:35.069Z,56.95
2022-08-14T00:42:05.714Z,57.13
2022-08-14T00:44:35.220Z,56.69
2022-08-14T00:47:10.864Z,57.02
2022-08-14T00:49:43.351Z,57.11
2022-08-14T00:52:18.247Z,57.23
2022-08-14T00:54:58.222Z,57.33
2022-08-14T00:57:30.548Z,57.26
2022-08-14T01:00:01.143Z,57.32
2022-08-14T01:02:32.353Z,57.31
2022-08-14T01:05:07.880Z,57.22
2022-08-14T01:07:47.399Z,57.14
2022-08-14T01:10:23.928Z,57.05
2022-08-14T01:13:07.066Z,57.31
2022-08-14T01:15:57.879Z,57.36
2022-08-14T01:18:57.840Z,57.49
2022-08-14T01:21:38.779Z,57.47
2022-08-14T01:24:24.822Z,57.43
2022-08-14T01:27:00.988Z,57.48
2022-08-14T01:29:52.764Z,57.48
2022-08-14T01:32:29.918Z,57.50
2022-08-14T01:35:20.114Z,58.16
2022-08-14T01:37:56.443Z,58.18
2022-08-14T01:40:37.058Z,58.14
2022-08-14T01:43:18.947Z,58.28
2022-08-14T01:45:57.838Z,58.18
2022-08-14T01:48:37.864Z,58.48
2022-08-14T01:51:19.132Z,58.49
2022-08-14T01:53:55.886Z,58.99
2022-08-14T01:56:38.968Z,58.72
2022-08-14T01:59:18.107Z,58.99
2022-08-14T02:01:58.438Z,58.57
2022-08-14T02:04:56.236Z,58.81
2022-08-14T02:07:34.304Z,59.11
2022-08-14T02:10:16.637Z,58.86
2022-08-14T02:12:56.893Z,58.92
2022-08-14T02:15:27.199Z,59.09
2022-08-14T02:17:56.670Z,59.00
2022-08-14T02:20:34.086Z,59.34
2022-08-14T02:23:05.645Z,59.38
2022-08-14T02:25:39.533Z,59.56
2022-08-14T02:28:24.609Z,59.80
2022-08-14T02:30:58.404Z,59.59
2022-08-14T02:33:29.429Z,59.71
2022-08-14T02:37:02.563Z,59.73
2022-08-14T02:38:53.058Z,60.24
2022-08-14T02:41:26.340Z,60.39
2022-08-14T02:44:00.677Z,60.19
2022-08-14T02:46:32.380Z,61.21
2022-08-14T02:49:06.278Z,60.30
2022-08-14T02:51:37.336Z,60.26
2022-08-14T02:54:09.206Z,60.14
2022-08-14T02:57:15.966Z,60.27
2022-08-14T02:59:33.869Z,60.34
2022-08-14T03:02:05.276Z,60.36
2022-08-14T03:04:35.046Z,60.37
2022-08-14T03:07:07.463Z,60.26
2022-08-14T03:10:26.930Z,60.16
2022-08-14T03:12:32.842Z,60.45
2022-08-14T03:15:16.225Z,60.27
2022-08-14T03:17:56.334Z,60.62
2022-08-14T03:20:29.000Z,60.58
2022-08-14T03:23:03.103Z,60.80
2022-08-14T03:25:37.697Z,60.89
2022-08-14T03:28:14.356Z,61.07
2022-08-14T03:30:44.213Z,60.95
2022-08-14T03:33:15.539Z,60.71
2022-08-14T03:36:00.217Z,60.81
2022-08-14T03:39:13.316Z,61.15
2022-08-14T03:41:33.072Z,60.95
2022-08-14T03:45:19.013Z,61.44
2022-08-14T03:47:03.577Z,61.28
2022-08-14T03:49:33.928Z,61.20
2022-08-14T03:52:07.877Z,61.36
2022-08-14T03:55:01.199Z,61.35
2022-08-14T03:57:37.042Z,61.79
2022-08-14T04:00:42.974Z,62.01
2022-08-14T04:03:02.818Z,61.80
2022-08-14T04:05:42.550Z,61.64
2022-08-14T04:08:29.729Z,61.72
2022-08-14T04:11:02.700Z,61.80
2022-08-14T04:13:34.097Z,62.04
2022-08-14T04:16:12.371Z,62.27
2022-08-14T04:18:43.480Z,62.16
2022-08-14T04:21:13.817Z,62.22
2022-08-14T04:23:45.674Z,62.19
2022-08-14T04:26:42.352Z,62.66
2022-08-14T04:29:15.563Z,62.26
2022-08-14T04:33:01.662Z,62.36
2022-08-14T04:34:41.832Z,62.28
2022-08-14T04:37:29.402Z,62.42
2022-08-14T04:40:17.054Z,62.55
2022-08-14T04:43:03.651Z,62.42
2022-08-14T04:45:40.840Z,62.60
2022-08-14T04:48:39.112Z,62.84
2022-08-14T04:51:06.379Z,62.79
2022-08-14T04:53:42.910Z,62.57
2022-08-14T04:56:31.645Z,62.65
2022-08-14T04:59:09.755Z,62.98
2022-08-14T05:01:47.913Z,62.79
2022-08-14T05:04:21.763Z,62.91
2022-08-14T05:06:53.649Z,63.03
2022-08-14T05:09:28.911Z,62.73
2022-08-14T05:13:10.785Z,62.81
2022-08-14T05:14:55.247Z,63.09
2022-08-14T05:17:32.220Z,63.07
2022-08-14T05:21:57.613Z,63.08
2022-08-14T05:23:04.683Z,63.16
2022-08-14T05:25:34.397Z,63.24
2022-08-14T05:28:16.286Z,63.25
2022-08-14T05:30:46.855Z,62.98
2022-08-14T05:33:18.658Z,62.95
2022-08-14T05:35:51.057Z,63.22
2022-08-14T05:38:31.190Z,63.14
2022-08-14T05:41:02.957Z,63.41
2022-08-14T05:43:41.595Z,63.22
2022-08-14T05:46:15.134Z,63.33
2022-08-14T05:48:45.517Z,63.19
2022-08-14T05:51:17.067Z,63.26
2022-08-14T05:54:00.217Z,63.10
2022-08-14T05:56:31.232Z,63.42
2022-08-14T05:59:01.818Z,63.12
2022-08-14T06:01:31.802Z,63.18
2022-08-14T06:04:01.424Z,63.01
2022-08-14T06:06:38.345Z,63.32
2022-08-14T06:09:09.665Z,63.01
2022-08-14T06:11:39.504Z,63.17
2022-08-14T06:14:12.377Z,63.11
2022-08-14T06:16:50.075Z,63.02
2022-08-14T06:19:23.372Z,62.99
2022-08-14T06:21:58.448Z,63.04
2022-08-14T06:24:30.588Z,62.78
2022-08-14T06:27:09.773Z,62.57
2022-08-14T06:29:40.408Z,62.56
2022-08-14T06:32:37.691Z,62.69
2022-08-14T06:35:04.755Z,62.75
2022-08-14T06:37:44.304Z,62.62
2022-08-14T06:40:26.249Z,62.49
2022-08-14T06:43:00.198Z,62.45
2022-08-14T06:45:33.443Z,62.67
2022-08-14T06:48:06.057Z,62.68
2022-08-14T06:50:35.791Z,62.93
2022-08-14T06:53:07.409Z,62.99
2022-08-14T06:55:40.785Z,63.11
2022-08-14T06:58:28.551Z,63.19
2022-08-14T07:01:18.409Z,63.60
2022-08-14T07:04:18.912Z,63.42
2022-08-14T07:06:55.465Z,63.15
2022-08-14T07:09:43.521Z,63.10
2022-08-14T07:12:34.870Z,63.15
2022-08-14T07:15:04.967Z,62.95
2022-08-14T07:17:36.265Z,62.98
2022-08-14T07:20:07.637Z,62.81
2022-08-14T07:22:56.029Z,62.54
2022-08-14T07:25:32.529Z,62.49
2022-08-14T07:28:09.699Z,62.16
2022-08-14T07:30:50.770Z,61.92
2022-08-14T07:33:29.264Z,62.23
2022-08-14T07:36:25.468Z,62.26
2022-08-14T07:38:53.982Z,62.41
2022-08-14T07:41:24.927Z,61.58
2022-08-14T07:44:32.177Z,60.08
2022-08-14T07:46:53.887Z,59.05
2022-08-14T07:49:24.586Z,58.34
2022-08-14T07:51:53.829Z,57.63
2022-08-14T07:54:29.850Z,57.73
2022-08-14T07:57:11.924Z,57.30
2022-08-14T07:59:44.233Z,57.12
2022-08-14T08:02:18.836Z,57.05
2022-08-14T08:04:55.398Z,57.11
2022-08-14T08:07:31.895Z,56.69
2022-08-14T08:10:46.540Z,55.95
2022-08-14T08:13:17.260Z,56.26
2022-08-14T08:15:49.157Z,54.95
2022-08-14T08:18:27.385Z,54.25
2022-08-14T08:21:00.232Z,53.57
2022-08-14T08:23:40.819Z,53.21
2022-08-14T08:26:12.935Z,51.99
2022-08-14T08:28:45.208Z,51.29
2022-08-14T08:31:14.572Z,50.27
2022-08-14T08:33:46.957Z,50.47
2022-08-14T08:36:19.194Z,49.85
2022-08-14T08:39:14.587Z,49.44
2022-08-14T08:41:50.463Z,47.77
2022-08-14T08:44:31.914Z,47.53
2022-08-14T08:47:06.507Z,46.75
2022-08-14T08:49:48.382Z,46.39
2022-08-14T08:52:25.456Z,46.17
2022-08-14T08:54:58.838Z,45.49
2022-08-14T08:57:28.385Z,45.75
2022-08-14T09:00:09.876Z,43.54
2022-08-14T09:03:04.113Z,43.75
2022-08-14T09:05:36.762Z,43.92
2022-08-14T09:08:30.953Z,44.18
2022-08-14T09:11:18.851Z,44.80
2022-08-14T09:13:52.545Z,44.62
2022-08-14T09:16:26.347Z,45.11
2022-08-14T09:18:56.150Z,45.75
2022-08-14T09:21:31.425Z,45.92
2022-08-14T09:24:26.491Z,46.24
2022-08-14T09:26:52.596Z,46.50
2022-08-14T09:29:23.012Z,47.02
2022-08-14T09:31:58.259Z,47.16
2022-08-14T09:34:58.971Z,47.45
2022-08-14T09:37:53.924Z,47.47
2022-08-14T09:40:42.219Z,47.68
2022-08-14T09:43:33.505Z,47.25
2022-08-14T09:46:09.153Z,46.79
2022-08-14T09:48:41.120Z,47.13
2022-08-14T09:51:25.460Z,46.73
2022-08-14T09:54:18.781Z,46.54
2022-08-14T09:56:56.665Z,46.41
2022-08-14T09:59:46.230Z,46.45
2022-08-14T10:02:28.494Z,45.93
2022-08-14T10:05:05.150Z,46.11
2022-08-14T10:07:50.672Z,46.48
2022-08-14T10:10:34.792Z,45.38
2022-08-14T10:13:06.957Z,46.17
2022-08-14T10:15:46.999Z,45.38
2022-08-14T10:18:22.006Z,44.56
2022-08-14T10:21:00.931Z,43.69
2022-08-14T10:23:44.603Z,42.48
2022-08-14T10:26:22.365Z,42.48
2022-08-14T10:29:18.874Z,42.51
2022-08-14T10:31:45.789Z,42.41
2022-08-14T10:34:21.201Z,41.59
2022-08-14T10:37:14.276Z,40.67
2022-08-14T10:39:51.428Z,39.92
2022-08-14T10:42:40.419Z,39.20
2022-08-14T10:45:21.938Z,37.85
2022-08-14T10:48:09.084Z,37.93
2022-08-14T10:50:45.921Z,37.21
2022-08-14T10:53:18.051Z,36.51
2022-08-14T10:55:48.595Z,35.80
2022-08-14T10:58:32.936Z,34.08
2022-08-14T11:01:08.057Z,34.74
2022-08-14T11:03:56.949Z,33.40
2022-08-14T11:06:27.219Z,33.49
2022-08-14T11:08:58.595Z,33.58
2022-08-14T11:11:28.516Z,33.33
2022-08-14T11:14:09.475Z,32.34
2022-08-14T11:16:40.653Z,32.26
2022-08-14T11:19:11.366Z,31.72
2022-08-14T11:21:45.786Z,30.86
2022-08-14T11:24:50.516Z,31.01
2022-08-14T11:27:09.601Z,30.44
2022-08-14T11:29:41.584Z,29.45
2022-08-14T11:32:11.172Z,28.65
2022-08-14T11:34:40.662Z,28.65
2022-08-14T11:37:19.330Z,28.42
2022-08-14T11:39:55.603Z,27.78
2022-08-14T11:42:56.702Z,27.99
2022-08-14T11:45:23.100Z,27.63
2022-08-14T11:48:12.740Z,27.69
2022-08-14T11:50:44.892Z,28.03
2022-08-14T11:53:25.385Z,28.22
2022-08-14T11:55:59.500Z,28.60
2022-08-14T11:58:31.351Z,28.30
2022-08-14T12:01:06.861Z,28.51
2022-08-14T12:03:51.169Z,29.21
2022-08-14T12:06:28.619Z,29.99
2022-08-14T12:09:14.939Z,30.77
2022-08-14T12:11:47.239Z,31.15
2022-08-14T12:14:29.764Z,32.48
2022-08-14T12:17:04.214Z,33.03
2022-08-14T12:19:51.263Z,33.61
2022-08-14T12:22:35.806Z,34.68
2022-08-14T12:25:11.492Z,34.74
2022-08-14T12:27:52.544Z,35.40
2022-08-14T12:30:43.133Z,35.72
2022-08-14T12:33:30.601Z,36.44
2022-08-14T12:36:05.551Z,36.80
2022-08-14T12:38:38.954Z,37.17
2022-08-14T12:41:20.243Z,37.80
2022-08-14T12:43:56.793Z,37.56
2022-08-14T12:46:31.737Z,37.86
2022-08-14T12:49:06.567Z,37.89
2022-08-14T12:51:36.298Z,37.78
2022-08-14T12:54:26.064Z,38.22
2022-08-14T12:57:07.290Z,38.00
2022-08-14T12:59:42.744Z,38.17
2022-08-14T13:02:25.291Z,38.63
2022-08-14T13:04:58.148Z,38.09
2022-08-14T13:07:32.604Z,38.25
2022-08-14T13:10:47.813Z,37.63
2022-08-14T13:13:13.026Z,37.70
2022-08-14T13:15:46.506Z,38.33
2022-08-14T13:18:17.755Z,38.46
2022-08-14T13:20:57.641Z,38.63
2022-08-14T13:23:32.033Z,38.56
2022-08-14T13:26:02.811Z,38.43
2022-08-14T13:28:41.338Z,38.88
2022-08-14T13:31:30.346Z,39.89
2022-08-14T13:34:00.294Z,39.51
2022-08-14T13:36:54.389Z,39.66
2022-08-14T13:39:22.269Z,39.81
2022-08-14T13:41:56.038Z,38.86
2022-08-14T13:44:29.054Z,38.09
2022-08-14T13:47:00.183Z,37.64
2022-08-14T13:49:33.212Z,36.51
2022-08-14T13:52:48.232Z,36.30
2022-08-14T13:54:59.640Z,35.72
2022-08-14T13:57:33.394Z,35.29
2022-08-14T14:00:08.634Z,35.50
2022-08-14T14:02:46.391Z,35.31
2022-08-14T14:05:19.414Z,34.96
2022-08-14T14:07:54.113Z,34.61
2022-08-14T14:10:28.479Z,34.47
2022-08-14T14:12:58.176Z,35.23
2022-08-14T14:15:33.866Z,35.31
2022-08-14T14:18:33.855Z,34.99
2022-08-14T14:21:06.640Z,35.19
2022-08-14T14:23:39.759Z,35.00
2022-08-14T14:26:13.759Z,34.93
2022-08-14T14:28:50.623Z,35.61
2022-08-14T14:31:29.649Z,35.38
2022-08-14T14:34:07.493Z,35.77
2022-08-14T14:36:44.586Z,36.52
2022-08-14T14:39:25.544Z,36.58
2022-08-14T14:42:00.698Z,37.66
2022-08-14T14:44:40.568Z,37.71
2022-08-14T14:47:12.005Z,38.32
2022-08-14T14:49:54.739Z,39.38
2022-08-14T14:52:27.076Z,39.88
2022-08-14T14:54:58.990Z,39.91
2022-08-14T14:57:35.568Z,39.56
2022-08-14T15:00:12.947Z,40.45
2022-08-14T15:02:44.531Z,40.82
2022-08-14T15:05:19.071Z,41.38
2022-08-14T15:07:54.006Z,41.78
2022-08-14T15:10:27.929Z,42.16
2022-08-14T15:13:04.036Z,42.63
2022-08-14T15:15:37.150Z,42.57
2022-08-14T15:18:36.772Z,42.47
2022-08-14T15:21:02.703Z,42.50
2022-08-14T15:23:44.230Z,42.67
2022-08-14T15:26:24.088Z,42.86
2022-08-14T15:29:05.182Z,43.27
2022-08-14T15:31:37.203Z,42.92
2022-08-14T15:34:44.656Z,43.50
2022-08-14T15:37:12.793Z,43.42
2022-08-14T15:39:42.993Z,43.39
2022-08-14T15:42:15.794Z,43.81
2022-08-14T15:44:58.316Z,43.65
2022-08-14T15:47:33.181Z,43.92
2022-08-14T15:50:08.775Z,44.21
2022-08-14T15:52:43.248Z,44.61
2022-08-14T15:55:16.406Z,44.67
2022-08-14T15:58:01.338Z,44.61
2022-08-14T16:00:51.859Z,44.50
2022-08-14T16:03:24.797Z,44.69
2022-08-14T16:05:57.303Z,45.03
2022-08-14T16:08:30.109Z,45.35
2022-08-14T16:11:01.977Z,45.96
2022-08-14T16:13:39.204Z,46.55
2022-08-14T16:16:51.082Z,46.84
2022-08-14T16:19:11.247Z,46.94
2022-08-14T16:22:01.295Z,46.93
2022-08-14T16:25:01.929Z,47.35
2022-08-14T16:27:37.071Z,47.77
2022-08-14T16:30:20.691Z,48.33
2022-08-14T16:32:56.752Z,48.41
2022-08-14T16:35:42.291Z,48.61
2022-08-14T16:38:46.338Z,48.76
2022-08-14T16:41:22.866Z,48.83
2022-08-14T16:44:01.436Z,48.96
2022-08-14T16:46:38.327Z,48.61
2022-08-14T16:49:16.248Z,48.52
2022-08-14T16:51:51.390Z,48.13
2022-08-14T16:54:35.345Z,47.57
2022-08-14T16:57:22.463Z,47.49
2022-08-14T16:59:57.771Z,47.12
2022-08-14T17:02:39.118Z,46.80
2022-08-14T17:05:21.968Z,46.73
2022-08-14T17:08:31.644Z,46.82
2022-08-14T17:11:11.031Z,46.76
2022-08-14T17:13:57.882Z,46.93
2022-08-14T17:16:37.472Z,46.35
2022-08-14T17:19:09.749Z,46.49
2022-08-14T17:21:47.007Z,46.32
2022-08-14T17:24:56.985Z,46.61
2022-08-14T17:30:00.255Z,46.92
2022-08-14T17:32:44.542Z,47.59
2022-08-14T17:35:57.553Z,47.57
2022-08-14T17:41:32.710Z,47.39
2022-08-14T17:44:34.103Z,47.30
2022-08-14T17:47:14.510Z,46.95
2022-08-14T17:49:51.981Z,46.75
2022-08-14T17:52:34.285Z,46.27
2022-08-14T17:55:09.947Z,46.13
2022-08-14T17:57:43.726Z,46.06
2022-08-14T18:00:17.858Z,46.02
2022-08-14T18:02:51.233Z,45.99
2022-08-14T18:06:07.730Z,45.84
2022-08-14T18:08:32.612Z,45.95
2022-08-14T18:11:04.142Z,45.86
2022-08-14T18:13:51.890Z,45.97
2022-08-14T18:16:23.046Z,45.79
2022-08-14T18:18:53.985Z,46.20
2022-08-14T18:21:41.927Z,46.13
2022-08-14T18:24:28.221Z,45.96
2022-08-14T18:27:09.432Z,45.96
2022-08-14T18:29:54.998Z,46.15
2022-08-14T18:32:47.280Z,46.41
2022-08-14T18:35:21.070Z,46.68
2022-08-14T18:37:55.460Z,46.54
2022-08-14T18:40:35.096Z,47.02
2022-08-14T18:43:07.412Z,47.38
2022-08-14T18:45:41.491Z,47.75
2022-08-14T18:48:50.084Z,48.25
2022-08-14T18:51:45.350Z,48.39
2022-08-14T18:54:33.009Z,48.66
2022-08-14T18:57:05.682Z,48.88
2022-08-14T18:59:42.304Z,49.23
2022-08-14T19:02:44.182Z,50.06
2022-08-14T19:05:15.128Z,49.55
2022-08-14T19:07:48.384Z,49.71
2022-08-14T19:10:37.252Z,49.82
2022-08-14T19:13:12.931Z,49.62
2022-08-14T19:15:56.066Z,49.65
2022-08-14T19:18:28.876Z,49.67
2022-08-14T19:21:01.637Z,49.63
2022-08-14T19:23:44.100Z,49.99
2022-08-14T19:26:35.875Z,50.15
2022-08-14T19:29:36.210Z,50.14
2022-08-14T19:32:41.007Z,50.19
2022-08-14T19:35:59.900Z,50.04
2022-08-14T19:38:57.331Z,50.28
2022-08-14T19:41:30.462Z,49.94
2022-08-14T19:44:19.167Z,49.44
2022-08-14T19:47:01.755Z,49.54
2022-08-14T19:50:07.955Z,49.30
2022-08-14T19:52:30.015Z,49.18
2022-08-14T19:55:16.545Z,49.41
2022-08-14T19:57:52.294Z,49.10
2022-08-14T20:00:30.278Z,48.82
2022-08-14T20:03:10.905Z,49.29
2022-08-14T20:05:42.879Z,49.40
2022-08-14T20:11:01.368Z,49.33
2022-08-14T20:12:01.135Z,49.39
2022-08-14T20:14:20.370Z,49.57
2022-08-14T20:17:03.251Z,49.50
2022-08-14T20:19:37.225Z,49.55
2022-08-14T20:22:37.580Z,49.62
2022-08-14T20:25:15.245Z,49.94
2022-08-14T20:27:49.924Z,50.10
2022-08-14T20:30:34.671Z,50.07
2022-08-14T20:33:11.295Z,50.21
2022-08-14T20:35:49.343Z,50.35
2022-08-14T20:38:30.539Z,50.20
2022-08-14T20:41:05.756Z,50.59
2022-08-14T20:43:58.611Z,50.25
2022-08-14T20:46:31.690Z,50.31
2022-08-14T20:49:03.658Z,50.11
2022-08-14T20:51:47.346Z,50.23
2022-08-14T20:54:34.062Z,50.21
2022-08-14T20:57:12.056Z,50.59
2022-08-14T20:59:50.409Z,50.72
2022-08-14T21:02:46.508Z,50.97
2022-08-14T21:05:34.427Z,51.03
2022-08-14T21:08:08.368Z,51.01
2022-08-14T21:10:54.967Z,51.10
2022-08-14T21:14:19.481Z,51.25
2022-08-14T21:16:33.003Z,51.18
2022-08-14T21:19:06.002Z,51.01
2022-08-14T21:21:41.840Z,51.07
2022-08-14T21:24:38.725Z,51.09
2022-08-14T21:27:13.003Z,51.69
2022-08-14T21:29:55.056Z,51.29
2022-08-14T21:32:46.958Z,51.29
2022-08-14T21:35:22.987Z,51.13
2022-08-14T21:37:53.933Z,51.15
2022-08-14T21:40:40.278Z,51.30
2022-08-14T21:43:17.925Z,51.49
2022-08-14T21:45:53.384Z,51.74
2022-08-14T21:48:29.272Z,51.53
2022-08-14T21:51:53.578Z,51.66
2022-08-14T21:54:00.261Z,51.58
2022-08-14T21:56:38.866Z,51.46
2022-08-14T21:59:18.087Z,51.57
2022-08-14T22:02:01.975Z,51.66
2022-08-14T22:04:40.439Z,51.74
2022-08-14T22:07:17.067Z,52.08
2022-08-14T22:09:55.521Z,51.99
2022-08-14T22:12:58.736Z,52.13
2022-08-14T22:15:19.158Z,51.93
2022-08-14T22:17:55.228Z,52.00
2022-08-14T22:20:29.562Z,51.99
2022-08-14T22:23:05.536Z,52.18
2022-08-14T22:25:41.230Z,52.10
2022-08-14T22:28:17.910Z,52.12
2022-08-14T22:30:55.293Z,51.87
2022-08-14T22:33:31.306Z,51.83
2022-08-14T22:36:25.616Z,51.95
2022-08-14T22:38:57.634Z,52.22
2022-08-14T22:41:32.654Z,52.11
2022-08-14T22:44:11.210Z,52.84
2022-08-14T22:46:43.271Z,52.77
2022-08-14T22:50:29.306Z,53.88
2022-08-14T22:52:49.331Z,53.54
2022-08-14T22:55:05.968Z,53.89
2022-08-14T22:57:37.886Z,53.97
2022-08-14T23:00:25.374Z,54.62
2022-08-14T23:03:04.144Z,54.38
2022-08-14T23:05:38.816Z,54.71
2022-08-14T23:08:56.277Z,54.99
2022-08-14T23:11:10.317Z,55.15
2022-08-14T23:13:43.598Z,55.17
2022-08-14T23:16:20.085Z,55.28
2022-08-14T23:18:53.633Z,55.92
2022-08-14T23:21:28.718Z,56.16
2022-08-14T23:23:59.906Z,56.75
2022-08-14T23:26:49.449Z,57.52
2022-08-14T23:29:25.094Z,56.90
2022-08-14T23:31:56.884Z,57.22
2022-08-14T23:34:29.588Z,57.03
2022-08-14T23:37:03.694Z,57.48
2022-08-14T23:39:35.447Z,57.71
2022-08-14T23:42:12.045Z,58.44
2022-08-14T23:44:47.597Z,58.50
2022-08-14T23:47:26.806Z,58.79
2022-08-14T23:50:03.651Z,59.52
2022-08-14T23:52:51.160Z,60.57
2022-08-14T23:55:33.287Z,60.93
2022-08-14T23:58:03.907Z,61.04
